CheckWX is a tool to help pilots better visualize weather data.  It is not intended as a substitute for an official pre-flight weather briefing.

11:42:04 UTC

KLAN METAR
Capital Region International Airport
Lansing, Michigan, USA
Current

24 mins ago

KLAN 261118Z 03010G20KT 10SM OVC015 M02/M06 A2998 RMK AO2 T10221056
Observed
Feb-26 @ 11:18 UTC
Wind
  • 030° at 10 KTS
  • Gusting to 20 KTS
Visibility
10 SM
Flight Rules
MVFR
Cloud Levels
  • Overcast at 1,500' AGL
Temperature
-2°C / 28°F
Dewpoint
-6°C / 21°F
Humidity
74%
Altimeter
29.98" Hg
Pressure
1015.22 hPa
Previous

49 mins ago

KLAN 261053Z 02013KT 10SM OVC013 M02/M05 A2999 RMK AO2 SLP164 T10221050
Observed
Feb-26 @ 10:53 UTC
Wind
  • 020° at 13 KTS
Visibility
10 SM
Flight Rules
MVFR
Cloud Levels
  • Overcast at 1,300' AGL
Temperature
-2°C / 28°F
Dewpoint
-5°C / 23°F
Humidity
80%
Altimeter
29.99" Hg
Pressure
1015.62 hPa
Previous

2 hours ago

KLAN 260953Z 02012KT 10SM OVC013 M02/M05 A2998 RMK AO2 SNE33 SLP161 P0000 T10221050
Observed
Feb-26 @ 09:53 UTC
Wind
  • 020° at 12 KTS
Visibility
10 SM
Flight Rules
MVFR
Cloud Levels
  • Overcast at 1,300' AGL
Temperature
-2°C / 28°F
Dewpoint
-5°C / 23°F
Humidity
80%
Altimeter
29.98" Hg
Pressure
1015.22 hPa
Current Rain
0.01"